Time;durP1;ratioP1;P1;durP2;ratioP2;P2;SDS_P1;SDS_P2;PMS_P1;PMS_P2;Temp;Humidity;BMP_temperature;BMP_pressure;BME280_temperature;BME280_humidity;BME280_pressure;Samples;Min_cycle;Max_cycle;Signal;HPM_P1;HPM_P2
2023/12/10 00:00:43;;;;;;;;;;;;;;;11.61;69.37;99817.38;7312346;19;19911;-65
2023/12/10 00:03:11;;;;;;;;;;;;;;;11.58;69.86;99824.63;7313687;19;20384;-65
2023/12/10 00:05:38;;;;;;;;;;;;;;;11.57;69.04;99824.84;7309163;19;20507;-64
2023/12/10 00:08:05;;;;;;;;;;;;;;;11.55;69.81;99834.72;7310584;19;19922;-65
2023/12/10 00:10:32;;;;;;;;;;;;;;;11.55;68.73;99840.00;7305390;19;19975;-67
2023/12/10 00:12:58;;;;;;;;;;;;;;;11.53;68.81;99842.00;7300919;19;19910;-65
2023/12/10 00:15:25;;;;;;;;;;;;;;;11.51;70.13;99839.56;7295892;19;19915;-65
2023/12/10 00:17:52;;;;;;;;;;;;;;;11.55;71.21;99868.97;7306109;19;19934;-65
2023/12/10 00:20:19;;;;;;;;;;;;;;;11.55;69.23;99866.34;7318543;19;20316;-66
2023/12/10 00:22:46;;;;;;;;;;;;;;;11.50;69.71;99863.44;7308507;19;20339;-64
2023/12/10 00:25:13;;;;;;;;;;;;;;;11.46;70.60;99877.97;7313151;19;19929;-65
2023/12/10 00:27:41;;;;;;;;;;;;;;;11.48;71.19;99881.22;7304264;19;19919;-64
2023/12/10 00:30:08;;;;;;;;;;;;;;;11.48;70.23;99875.97;7322776;19;19936;-67
2023/12/10 00:32:35;;;;;;;;;;;;;;;11.47;70.55;99890.16;7326640;19;19915;-66
2023/12/10 00:35:03;;;;;;;;;;;;;;;11.47;70.64;99893.59;7313715;19;22603;-67
2023/12/10 00:37:30;;;;;;;;;;;;;;;11.47;70.57;99906.78;7308419;19;20324;-66
2023/12/10 00:39:56;;;;;;;;;;;;;;;11.46;70.03;99902.50;7310785;19;19965;-67
2023/12/10 00:42:23;;;;;;;;;;;;;;;11.45;70.14;99903.50;7300621;19;19914;-67
2023/12/10 00:44:50;;;;;;;;;;;;;;;11.44;71.02;99903.66;7309702;19;19986;-67
2023/12/10 00:47:17;;;;;;;;;;;;;;;11.40;70.63;99912.94;7295972;19;20146;-67
2023/12/10 00:49:45;;;;;;;;;;;;;;;11.39;71.58;99920.03;7296256;19;20047;-68
2023/12/10 00:52:12;;;;;;;;;;;;;;;11.38;71.38;99928.09;7313011;19;20325;-66
2023/12/10 00:54:39;;;;;;;;;;;;;;;11.36;72.28;99927.47;7315678;19;19918;-66
2023/12/10 00:57:06;;;;;;;;;;;;;;;11.40;72.66;99939.28;7306213;19;19926;-68
2023/12/10 00:59:33;;;;;;;;;;;;;;;11.41;73.26;99947.00;7311650;19;21235;-66
2023/12/10 01:02:00;;;;;;;;;;;;;;;11.43;72.71;99928.38;7317203;19;19918;-66
2023/12/10 01:04:27;;;;;;;;;;;;;;;11.41;72.31;99933.03;7313075;19;19952;-67
2023/12/10 01:06:54;;;;;;;;;;;;;;;11.40;73.89;99937.47;7310279;19;19910;-66
2023/12/10 01:09:21;;;;;;;;;;;;;;;11.37;71.91;99956.28;7301777;19;22161;-67
2023/12/10 01:11:47;;;;;;;;;;;;;;;11.38;72.43;99952.63;7302996;19;20099;-67
2023/12/10 01:14:14;;;;;;;;;;;;;;;11.35;72.61;99953.00;7301192;19;20891;-66
2023/12/10 01:16:44;;;;;;;;;;;;;;;11.34;72.59;99953.16;7313976;19;20181;-67
2023/12/10 01:19:17;;;;;;;;;;;;;;;11.33;72.38;99967.31;7310757;19;19922;-66
2023/12/10 01:21:55;;;;;;;;;;;;;;;11.33;72.66;99962.88;7310908;19;19929;-66
2023/12/10 01:24:30;;;;;;;;;;;;;;;11.34;71.88;99966.31;7287866;19;20340;-67
2023/12/10 01:26:57;;;;;;;;;;;;;;;11.32;72.01;99979.69;7299114;19;20419;-67
2023/12/10 01:29:25;;;;;;;;;;;;;;;11.29;72.42;99961.59;7306285;19;19923;-67
2023/12/10 01:31:52;;;;;;;;;;;;;;;11.31;72.26;99982.50;7313017;19;19923;-66
2023/12/10 01:34:19;;;;;;;;;;;;;;;11.30;72.88;99986.13;7309772;19;20367;-66
2023/12/10 01:36:47;;;;;;;;;;;;;;;11.31;72.98;99993.03;7312917;19;20257;-66
2023/12/10 01:39:15;;;;;;;;;;;;;;;11.30;73.51;99992.22;7300659;19;20319;-67
2023/12/10 01:41:43;;;;;;;;;;;;;;;11.32;72.96;100003.41;7304499;19;20023;-66
2023/12/10 01:44:12;;;;;;;;;;;;;;;11.28;73.01;100004.72;7305613;19;20747;-66
2023/12/10 01:46:55;;;;;;;;;;;;;;;11.29;73.76;100000.28;7312946;19;19922;-67
2023/12/10 01:49:23;;;;;;;;;;;;;;;11.27;74.20;100011.00;7307900;19;19918;-66
2023/12/10 01:51:50;;;;;;;;;;;;;;;11.26;74.10;100001.47;7321457;19;20494;-67
2023/12/10 01:54:24;;;;;;;;;;;;;;;11.25;73.84;100017.44;7318745;19;19930;-67
2023/12/10 01:56:51;;;;;;;;;;;;;;;11.23;74.33;100012.34;7325367;19;19930;-65
2023/12/10 01:59:31;;;;;;;;;;;;;;;11.26;75.34;100026.97;7323675;19;20007;-64
2023/12/10 02:01:59;;;;;;;;;;;;;;;11.24;74.53;100034.22;7322049;19;20738;-64
2023/12/10 02:04:26;;;;;;;;;;;;;;;11.23;74.87;100032.59;7326599;19;19919;-65
2023/12/10 02:06:53;;;;;;;;;;;;;;;11.24;76.08;100048.22;7321301;19;22299;-65
2023/12/10 02:09:20;;;;;;;;;;;;;;;11.25;76.08;100047.22;7324251;19;19923;-65
2023/12/10 02:11:47;;;;;;;;;;;;;;;11.25;75.50;100055.13;7322262;19;19929;-64
2023/12/10 02:14:14;;;;;;;;;;;;;;;11.29;76.14;100055.59;7306372;19;21090;-65
2023/12/10 02:16:41;;;;;;;;;;;;;;;11.26;76.53;100066.47;7313867;19;19974;-65
2023/12/10 02:19:08;;;;;;;;;;;;;;;11.24;76.74;100071.91;7318105;19;19944;-65
2023/12/10 02:21:35;;;;;;;;;;;;;;;11.25;76.04;100078.00;7312151;19;19933;-65
2023/12/10 02:24:05;;;;;;;;;;;;;;;11.26;76.34;100074.38;7323124;19;20494;-65
2023/12/10 02:26:32;;;;;;;;;;;;;;;11.23;76.64;100075.53;7312180;19;19929;-64
2023/12/10 02:28:59;;;;;;;;;;;;;;;11.17;77.01;100076.25;7309293;19;20501;-64
2023/12/10 02:31:26;;;;;;;;;;;;;;;11.15;77.10;100081.69;7306895;19;20488;-64
2023/12/10 02:33:53;;;;;;;;;;;;;;;11.14;76.70;100084.50;7320225;19;19919;-65
2023/12/10 02:36:21;;;;;;;;;;;;;;;11.15;77.01;100094.03;7333466;19;20369;-65
2023/12/10 02:38:49;;;;;;;;;;;;;;;11.13;76.39;100099.47;7307478;19;19923;-64
2023/12/10 02:41:16;;;;;;;;;;;;;;;11.15;77.60;100101.94;7307739;19;19942;-64
2023/12/10 02:43:42;;;;;;;;;;;;;;;11.17;77.53;100110.50;7312668;19;19913;-65
2023/12/10 02:46:09;;;;;;;;;;;;;;;11.19;77.69;100124.28;7322805;19;19961;-65
2023/12/10 02:48:36;;;;;;;;;;;;;;;11.19;77.64;100120.81;7315825;19;20024;-64
2023/12/10 02:51:03;;;;;;;;;;;;;;;11.20;77.61;100133.00;7312491;19;19922;-64
2023/12/10 02:53:30;;;;;;;;;;;;;;;11.22;76.79;100146.81;7318176;19;19926;-64
2023/12/10 02:55:57;;;;;;;;;;;;;;;11.24;78.47;100147.47;7322085;19;20740;-65
2023/12/10 02:58:24;;;;;;;;;;;;;;;11.24;78.21;100155.34;7326596;19;19938;-64
2023/12/10 03:00:51;;;;;;;;;;;;;;;11.23;77.69;100156.34;7320468;19;20405;-64
2023/12/10 03:03:18;;;;;;;;;;;;;;;11.21;77.95;100159.16;7306874;19;19997;-64
2023/12/10 03:05:45;;;;;;;;;;;;;;;11.19;77.79;100161.16;7307948;19;20299;-64
2023/12/10 03:08:12;;;;;;;;;;;;;;;11.17;77.84;100171.06;7325654;19;19978;-65
2023/12/10 03:10:39;;;;;;;;;;;;;;;11.16;78.80;100185.19;7322038;19;20502;-65
2023/12/10 03:13:06;;;;;;;;;;;;;;;11.15;79.21;100180.91;7315575;19;19937;-65
2023/12/10 03:15:33;;;;;;;;;;;;;;;11.16;79.62;100185.19;7317405;19;19984;-65
2023/12/10 03:18:01;;;;;;;;;;;;;;;11.15;79.40;100184.38;7330270;19;19950;-64
2023/12/10 03:20:28;;;;;;;;;;;;;;;11.14;79.48;100193.25;7316409;19;19923;-65
2023/12/10 03:22:55;;;;;;;;;;;;;;;11.13;79.67;100191.63;7320605;19;19925;-64
2023/12/10 03:25:22;;;;;;;;;;;;;;;11.12;79.97;100183.91;7319716;19;19918;-65
2023/12/10 03:27:51;;;;;;;;;;;;;;;11.11;80.12;100185.72;7307186;19;20387;-65
2023/12/10 03:30:19;;;;;;;;;;;;;;;11.10;80.58;100185.88;7313463;19;20182;-64
2023/12/10 03:32:46;;;;;;;;;;;;;;;11.08;80.94;100180.78;7299293;19;19958;-64
2023/12/10 03:35:13;;;;;;;;;;;;;;;11.06;80.74;100174.06;7302979;19;21558;-63
2023/12/10 03:37:39;;;;;;;;;;;;;;;11.02;81.26;100178.81;7314961;19;20544;-64
2023/12/10 03:40:06;;;;;;;;;;;;;;;11.00;80.83;100182.63;7301980;19;20559;-63
2023/12/10 03:42:34;;;;;;;;;;;;;;;11.00;81.92;100174.75;7314868;19;20260;-65
2023/12/10 03:45:00;;;;;;;;;;;;;;;11.00;81.39;100180.00;7313000;19;19919;-64
2023/12/10 03:47:27;;;;;;;;;;;;;;;10.99;82.27;100176.56;7303087;19;19983;-65
2023/12/10 03:49:54;;;;;;;;;;;;;;;10.98;82.85;100182.81;7297690;19;20291;-66
2023/12/10 03:52:21;;;;;;;;;;;;;;;10.98;82.25;100184.63;7311261;19;20202;-66
2023/12/10 03:54:48;;;;;;;;;;;;;;;10.97;82.67;100191.69;7325542;19;19922;-66
2023/12/10 03:57:15;;;;;;;;;;;;;;;10.95;82.97;100193.69;7321223;19;19915;-64
2023/12/10 03:59:42;;;;;;;;;;;;;;;10.93;83.20;100198.28;7319383;19;19922;-64
2023/12/10 04:02:09;;;;;;;;;;;;;;;10.91;82.86;100196.84;7311390;19;19925;-66
2023/12/10 04:04:36;;;;;;;;;;;;;;;10.90;83.29;100198.63;7321167;19;20319;-64
2023/12/10 04:07:04;;;;;;;;;;;;;;;10.87;83.33;100208.69;7306435;19;19927;-64
2023/12/10 04:09:31;;;;;;;;;;;;;;;10.87;84.48;100217.38;7309649;19;20069;-65
2023/12/10 04:12:01;;;;;;;;;;;;;;;10.87;84.68;100216.59;7318873;19;19922;-65
2023/12/10 04:14:28;;;;;;;;;;;;;;;10.84;84.55;100217.72;7310867;19;20010;-65
2023/12/10 04:16:55;;;;;;;;;;;;;;;10.85;84.80;100213.28;7318879;19;19925;-65
2023/12/10 04:19:22;;;;;;;;;;;;;;;10.87;86.56;100214.75;7312569;19;19981;-64
2023/12/10 04:21:49;;;;;;;;;;;;;;;10.89;86.06;100223.31;7311526;19;19923;-65
2023/12/10 04:24:16;;;;;;;;;;;;;;;10.89;86.01;100233.00;7302928;19;20428;-66
2023/12/10 04:26:43;;;;;;;;;;;;;;;10.89;85.91;100233.84;7312163;19;20315;-64
2023/12/10 04:29:09;;;;;;;;;;;;;;;10.89;86.72;100220.69;7310987;19;20732;-64
2023/12/10 04:31:37;;;;;;;;;;;;;;;10.90;86.67;100224.97;7314351;19;19945;-64
2023/12/10 04:34:07;;;;;;;;;;;;;;;10.89;86.46;100215.41;7315072;19;19918;-64
2023/12/10 04:36:34;;;;;;;;;;;;;;;10.89;86.64;100223.31;7305368;19;20457;-65
2023/12/10 04:39:01;;;;;;;;;;;;;;;10.89;87.02;100230.38;7322288;19;19926;-64
2023/12/10 04:41:32;;;;;;;;;;;;;;;10.89;86.98;100236.47;7309101;19;19991;-64
2023/12/10 04:43:59;;;;;;;;;;;;;;;10.89;87.06;100236.47;7315162;19;19927;-64
2023/12/10 04:46:26;;;;;;;;;;;;;;;10.89;86.89;100239.09;7310274;19;19915;-64
2023/12/10 04:48:53;;;;;;;;;;;;;;;10.89;87.58;100238.28;7314935;19;20187;-64
2023/12/10 04:51:21;;;;;;;;;;;;;;;10.89;88.08;100236.47;7319257;19;19914;-64
2023/12/10 04:53:49;;;;;;;;;;;;;;;10.90;87.82;100243.38;7312195;19;19934;-64
2023/12/10 04:56:16;;;;;;;;;;;;;;;10.91;87.84;100239.78;7316219;19;20561;-64
2023/12/10 04:58:43;;;;;;;;;;;;;;;10.90;87.56;100240.75;7303778;19;19986;-65
2023/12/10 05:01:10;;;;;;;;;;;;;;;10.89;87.35;100246.19;7315366;19;19945;-64
2023/12/10 05:03:42;;;;;;;;;;;;;;;10.89;87.60;100254.91;7318278;19;19967;-65
2023/12/10 05:06:09;;;;;;;;;;;;;;;10.90;87.22;100256.53;7333780;19;19930;-64
2023/12/10 05:08:36;;;;;;;;;;;;;;;10.93;87.02;100260.63;7331075;19;20270;-68
2023/12/10 05:11:05;;;;;;;;;;;;;;;10.92;87.00;100261.66;7332324;19;19929;-64
2023/12/10 05:13:35;;;;;;;;;;;;;;;10.92;87.46;100272.19;7325763;19;20003;-65
2023/12/10 05:16:03;;;;;;;;;;;;;;;10.92;87.60;100280.06;7327630;19;19935;-63
2023/12/10 05:18:30;;;;;;;;;;;;;;;10.92;87.21;100272.19;7325293;19;20288;-63
2023/12/10 05:20:57;;;;;;;;;;;;;;;10.88;86.86;100263.78;7304088;19;19945;-64
2023/12/10 05:23:24;;;;;;;;;;;;;;;10.90;86.97;100267.06;7299974;19;20164;-64
2023/12/10 05:25:51;;;;;;;;;;;;;;;10.90;86.82;100255.72;7293173;19;20022;-65
2023/12/10 05:28:18;;;;;;;;;;;;;;;10.90;86.79;100255.72;7293768;19;19990;-66
2023/12/10 05:30:45;;;;;;;;;;;;;;;10.89;87.26;100254.06;7315541;19;20382;-65
2023/12/10 05:33:12;;;;;;;;;;;;;;;10.90;87.47;100242.56;7317815;19;19918;-65
2023/12/10 05:35:40;;;;;;;;;;;;;;;10.86;86.88;100243.91;7319840;19;22418;-64
2023/12/10 05:38:09;;;;;;;;;;;;;;;10.86;87.22;100241.25;7328090;19;19919;-67
2023/12/10 05:40:36;;;;;;;;;;;;;;;10.83;87.57;100250.31;7316490;19;20006;-66
2023/12/10 05:43:02;;;;;;;;;;;;;;;10.83;87.62;100239.78;7319229;19;19930;-65
2023/12/10 05:45:29;;;;;;;;;;;;;;;10.86;87.99;100241.25;7295470;19;19956;-64
2023/12/10 05:47:56;;;;;;;;;;;;;;;10.85;87.65;100240.44;7304881;19;19926;-65
2023/12/10 05:50:23;;;;;;;;;;;;;;;10.85;88.19;100235.19;7312636;19;19925;-64
2023/12/10 05:52:50;;;;;;;;;;;;;;;10.85;87.20;100244.88;7315939;19;19918;-64
2023/12/10 05:55:17;;;;;;;;;;;;;;;10.84;87.33;100245.84;7318478;19;19941;-66
2023/12/10 05:57:44;;;;;;;;;;;;;;;10.82;87.22;100238.13;7317533;19;20513;-64
2023/12/10 06:00:11;;;;;;;;;;;;;;;10.82;88.76;100232.88;7312565;19;20019;-66
2023/12/10 06:02:38;;;;;;;;;;;;;;;10.83;87.92;100234.50;7314421;19;20013;-64
2023/12/10 06:05:05;;;;;;;;;;;;;;;10.82;87.09;100234.69;7309591;19;19914;-65
2023/12/10 06:07:35;;;;;;;;;;;;;;;10.82;86.85;100245.22;7308164;19;20121;-64
2023/12/10 06:10:02;;;;;;;;;;;;;;;10.83;88.00;100260.81;7313781;19;20366;-65
2023/12/10 06:12:29;;;;;;;;;;;;;;;10.86;88.38;100263.13;7323292;19;20517;-66
2023/12/10 06:14:57;;;;;;;;;;;;;;;10.88;87.86;100278.75;7306156;19;20316;-65
2023/12/10 06:17:23;;;;;;;;;;;;;;;10.86;87.56;100291.25;7306385;19;19918;-64
2023/12/10 06:19:50;;;;;;;;;;;;;;;10.86;88.30;100293.91;7308926;19;20371;-65
2023/12/10 06:22:17;;;;;;;;;;;;;;;10.89;88.41;100299.63;7299731;19;19926;-65
2023/12/10 06:24:44;;;;;;;;;;;;;;;10.92;88.08;100280.88;7307055;19;19939;-66
2023/12/10 06:27:11;;;;;;;;;;;;;;;10.93;87.64;100285.16;7316180;19;19925;-66
2023/12/10 06:29:39;;;;;;;;;;;;;;;10.94;87.61;100271.00;7315773;19;19955;-64
2023/12/10 06:32:06;;;;;;;;;;;;;;;10.93;88.12;100277.25;7324143;19;20403;-65
2023/12/10 06:34:33;;;;;;;;;;;;;;;10.94;88.38;100276.25;7324840;19;20003;-64
2023/12/10 06:37:00;;;;;;;;;;;;;;;10.96;88.38;100279.56;7313556;19;19927;-64
2023/12/10 06:39:27;;;;;;;;;;;;;;;10.98;87.55;100274.09;7320631;19;20731;-65
2023/12/10 06:41:54;;;;;;;;;;;;;;;10.98;87.82;100268.84;7328733;19;20490;-64
2023/12/10 06:44:21;;;;;;;;;;;;;;;11.00;88.77;100244.00;7324907;19;19940;-64
2023/12/10 06:46:49;;;;;;;;;;;;;;;11.02;87.91;100230.69;7314127;19;20345;-64
2023/12/10 06:49:16;;;;;;;;;;;;;;;11.04;87.94;100202.34;7325011;19;19932;-65
2023/12/10 06:51:43;;;;;;;;;;;;;;;11.03;87.35;100187.56;7319176;19;19915;-64
2023/12/10 06:54:10;;;;;;;;;;;;;;;11.04;88.35;100179.50;7323098;19;19915;-64
2023/12/10 06:56:40;;;;;;;;;;;;;;;11.07;88.65;100210.72;7310226;19;19922;-67
2023/12/10 06:59:07;;;;;;;;;;;;;;;11.11;88.72;100232.28;7325552;19;20203;-66
2023/12/10 07:01:35;;;;;;;;;;;;;;;11.12;88.54;100234.72;7318127;19;19919;-65
2023/12/10 07:04:06;;;;;;;;;;;;;;;11.18;89.31;100235.03;7323732;19;19926;-64
2023/12/10 07:06:34;;;;;;;;;;;;;;;11.19;88.92;100234.88;7300070;19;21665;-64
2023/12/10 07:09:01;;;;;;;;;;;;;;;11.15;88.54;100238.84;7305197;19;19944;-65
2023/12/10 07:11:31;;;;;;;;;;;;;;;11.14;88.71;100222.22;7302635;19;20310;-65
2023/12/10 07:13:58;;;;;;;;;;;;;;;11.14;88.86;100234.56;7303101;19;19917;-66
2023/12/10 07:16:25;;;;;;;;;;;;;;;11.13;88.94;100212.69;7306813;19;19968;-65
2023/12/10 07:18:52;;;;;;;;;;;;;;;11.12;88.81;100233.94;7315391;19;19957;-66
2023/12/10 07:21:19;;;;;;;;;;;;;;;11.13;89.25;100225.84;7318543;19;19923;-65
2023/12/10 07:23:49;;;;;;;;;;;;;;;11.14;89.49;100240.66;7313443;19;20025;-64
2023/12/10 07:26:23;;;;;;;;;;;;;;;11.12;89.61;100231.31;7308883;19;19915;-64
2023/12/10 07:28:51;;;;;;;;;;;;;;;11.09;89.34;100234.25;7325635;19;20322;-65
2023/12/10 07:31:18;;;;;;;;;;;;;;;11.05;89.79;100240.84;7316225;19;19915;-64
2023/12/10 07:33:45;;;;;;;;;;;;;;;11.03;89.86;100242.84;7318081;19;19925;-65
2023/12/10 07:36:12;;;;;;;;;;;;;;;11.02;90.34;100236.75;7307668;19;19938;-65
2023/12/10 07:38:39;;;;;;;;;;;;;;;11.02;90.43;100228.84;7303251;19;20245;-64
2023/12/10 07:41:06;;;;;;;;;;;;;;;11.03;90.57;100230.50;7325231;19;19922;-64
2023/12/10 07:43:33;;;;;;;;;;;;;;;11.04;90.61;100200.56;7333028;19;19919;-63
2023/12/10 07:46:00;;;;;;;;;;;;;;;11.00;90.99;100211.59;7338126;19;20696;-66
2023/12/10 07:48:27;;;;;;;;;;;;;;;10.99;91.50;100204.69;7335396;19;20605;-66
2023/12/10 07:50:54;;;;;;;;;;;;;;;11.01;91.68;100206.16;7335723;19;20583;-65
2023/12/10 07:53:23;;;;;;;;;;;;;;;11.00;91.32;100201.06;7336192;19;21200;-65
2023/12/10 07:55:50;;;;;;;;;;;;;;;11.02;91.61;100194.63;7334140;19;19918;-66
2023/12/10 07:58:17;;;;;;;;;;;;;;;11.06;91.60;100195.94;7336595;19;19946;-64
2023/12/10 08:00:47;;;;;;;;;;;;;;;11.07;91.66;100181.75;7329304;19;20363;-64
2023/12/10 08:03:14;;;;;;;;;;;;;;;11.08;91.61;100185.22;7314648;19;20889;-66
2023/12/10 08:05:42;;;;;;;;;;;;;;;11.10;91.79;100189.34;7307307;19;19918;-65
2023/12/10 08:08:08;;;;;;;;;;;;;;;11.10;91.78;100181.44;7314853;19;20188;-64
2023/12/10 08:10:36;;;;;;;;;;;;;;;11.08;91.90;100169.44;7322609;19;20384;-64
2023/12/10 08:13:02;;;;;;;;;;;;;;;11.08;92.17;100170.25;7314192;19;19943;-65
2023/12/10 08:15:29;;;;;;;;;;;;;;;11.08;92.34;100164.16;7322271;19;20416;-65
2023/12/10 08:17:56;;;;;;;;;;;;;;;11.08;92.38;100151.81;7322420;19;19999;-65
2023/12/10 08:20:24;;;;;;;;;;;;;;;11.07;92.85;100144.91;7319601;19;19921;-65
2023/12/10 08:22:51;;;;;;;;;;;;;;;11.10;92.94;100149.03;7318056;19;19919;-65
2023/12/10 08:25:18;;;;;;;;;;;;;;;11.09;92.86;100145.56;7320331;19;20253;-65
2023/12/10 08:27:45;;;;;;;;;;;;;;;11.10;92.97;100138.50;7317240;19;22209;-64
2023/12/10 08:30:12;;;;;;;;;;;;;;;11.13;93.13;100136.31;7311008;19;20379;-68
2023/12/10 08:32:39;;;;;;;;;;;;;;;11.14;93.08;100131.88;7302163;19;19940;-64
2023/12/10 08:35:06;;;;;;;;;;;;;;;11.12;93.08;100126.00;7335600;19;19915;-65
2023/12/10 08:37:33;;;;;;;;;;;;;;;11.15;93.28;100120.38;7300053;19;19977;-65
2023/12/10 08:40:01;;;;;;;;;;;;;;;11.14;93.10;100122.19;7314205;19;20611;-64
2023/12/10 08:42:30;;;;;;;;;;;;;;;11.16;92.97;100119.38;7324957;19;19922;-65
2023/12/10 08:44:58;;;;;;;;;;;;;;;11.17;93.01;100113.13;7319888;19;19930;-64
2023/12/10 08:47:25;;;;;;;;;;;;;;;11.16;92.90;100114.13;7320238;19;20461;-64
2023/12/10 08:49:52;;;;;;;;;;;;;;;11.18;93.47;100114.75;7310739;19;19990;-65
2023/12/10 08:52:19;;;;;;;;;;;;;;;11.19;93.43;100119.00;7308475;19;20500;-64
2023/12/10 08:54:46;;;;;;;;;;;;;;;11.23;93.34;100111.56;7322961;19;20031;-64
2023/12/10 08:57:13;;;;;;;;;;;;;;;11.24;93.73;100108.78;7329656;19;19915;-65
2023/12/10 08:59:40;;;;;;;;;;;;;;;11.26;93.72;100108.63;7312226;19;20738;-64
2023/12/10 09:02:07;;;;;;;;;;;;;;;11.28;93.88;100112.69;7312979;19;19915;-65
2023/12/10 09:04:34;;;;;;;;;;;;;;;11.30;93.68;100102.81;7323864;19;20244;-65
2023/12/10 09:07:01;;;;;;;;;;;;;;;11.35;93.53;100104.91;7307893;19;20440;-64
2023/12/10 09:09:28;;;;;;;;;;;;;;;11.36;93.25;100107.38;7312787;19;20708;-63
2023/12/10 09:11:55;;;;;;;;;;;;;;;11.41;93.27;100106.84;7298833;19;19922;-64
2023/12/10 09:14:22;;;;;;;;;;;;;;;11.45;93.45;100100.22;7309425;19;20145;-64
2023/12/10 09:16:49;;;;;;;;;;;;;;;11.46;92.98;100094.81;7312098;19;19936;-65
2023/12/10 09:19:17;;;;;;;;;;;;;;;11.50;92.76;100105.78;7306835;19;20363;-65
2023/12/10 09:21:45;;;;;;;;;;;;;;;11.53;92.86;100090.44;7300548;19;19958;-66
2023/12/10 09:24:12;;;;;;;;;;;;;;;11.56;93.25;100081.38;7310398;19;20014;-66
2023/12/10 09:26:39;;;;;;;;;;;;;;;11.60;93.14;100090.56;7321580;19;19943;-65
2023/12/10 09:29:05;;;;;;;;;;;;;;;11.63;93.09;100077.03;7324281;19;20009;-67
2023/12/10 09:31:32;;;;;;;;;;;;;;;11.71;92.98;100061.16;7314546;19;20365;-65
2023/12/10 09:33:59;;;;;;;;;;;;;;;11.75;92.51;100054.56;7317651;19;19930;-64
2023/12/10 09:36:26;;;;;;;;;;;;;;;11.80;92.29;100051.38;7310792;19;20002;-64
2023/12/10 09:38:53;;;;;;;;;;;;;;;11.86;92.12;100048.84;7307787;19;19926;-65
2023/12/10 09:41:20;;;;;;;;;;;;;;;11.95;92.04;100037.22;7315214;19;20238;-65
2023/12/10 09:43:47;;;;;;;;;;;;;;;12.00;91.95;100032.22;7320053;19;19922;-64
2023/12/10 09:46:15;;;;;;;;;;;;;;;12.07;92.20;100023.59;7309848;19;19953;-63
2023/12/10 09:48:44;;;;;;;;;;;;;;;12.10;91.49;100016.13;7323534;19;20396;-63
2023/12/10 09:51:12;;;;;;;;;;;;;;;12.14;91.36;100019.22;7311579;19;19927;-65
2023/12/10 09:53:40;;;;;;;;;;;;;;;12.19;91.86;100027.41;7319369;19;19922;-65
2023/12/10 09:56:07;;;;;;;;;;;;;;;12.22;91.93;100013.84;7318046;19;20767;-64
2023/12/10 09:58:34;;;;;;;;;;;;;;;12.22;92.27;100004.13;7304007;19;19926;-64
2023/12/10 10:01:06;;;;;;;;;;;;;;;12.24;92.53;100001.31;7311308;19;19923;-67
2023/12/10 10:03:36;;;;;;;;;;;;;;;12.27;92.47;99990.38;7322572;19;20364;-65
2023/12/10 10:06:05;;;;;;;;;;;;;;;12.31;92.61;100023.28;7317350;19;19945;-64
2023/12/10 10:08:32;;;;;;;;;;;;;;;12.30;92.53;100035.66;7314516;19;20493;-66
2023/12/10 10:10:59;;;;;;;;;;;;;;;12.34;93.03;100049.31;7325480;19;19926;-64
2023/12/10 10:13:26;;;;;;;;;;;;;;;12.37;93.41;100038.38;7305997;19;19994;-65
2023/12/10 10:15:53;;;;;;;;;;;;;;;12.40;93.59;100033.56;7303220;19;19930;-64
2023/12/10 10:18:20;;;;;;;;;;;;;;;12.42;93.47;100012.25;7327844;19;20233;-64
2023/12/10 10:20:47;;;;;;;;;;;;;;;12.44;93.45;100005.78;7329724;19;20126;-64
2023/12/10 10:23:14;;;;;;;;;;;;;;;12.48;93.88;99989.59;7314821;19;19923;-65
2023/12/10 10:25:42;;;;;;;;;;;;;;;12.55;94.05;99985.19;7311578;19;19922;-67
2023/12/10 10:28:09;;;;;;;;;;;;;;;12.57;93.74;99957.63;7316386;19;20006;-65
2023/12/10 10:30:36;;;;;;;;;;;;;;;12.62;93.93;99946.50;7325141;19;19922;-66
2023/12/10 10:33:04;;;;;;;;;;;;;;;12.61;93.52;99963.34;7314467;19;20474;-65
2023/12/10 10:35:31;;;;;;;;;;;;;;;12.63;94.19;99954.25;7318422;19;19914;-66
2023/12/10 10:37:58;;;;;;;;;;;;;;;12.68;94.27;99951.03;7324143;19;20026;-64
2023/12/10 10:40:25;;;;;;;;;;;;;;;12.69;93.59;99953.50;7327500;19;19918;-65
2023/12/10 10:42:52;;;;;;;;;;;;;;;12.70;93.45;99935.81;7316221;19;20436;-65
2023/12/10 10:45:19;;;;;;;;;;;;;;;12.73;94.07;99933.66;7322222;19;19914;-64
2023/12/10 10:47:46;;;;;;;;;;;;;;;12.74;93.86;99910.72;7316476;19;20217;-65
2023/12/10 10:50:14;;;;;;;;;;;;;;;12.77;93.73;99912.94;7316597;19;20715;-64
2023/12/10 10:52:51;;;;;;;;;;;;;;;12.78;94.12;99901.41;7319772;19;19911;-65
2023/12/10 10:55:19;;;;;;;;;;;;;;;12.79;94.10;99900.41;7324709;19;19915;-65
2023/12/10 10:57:46;;;;;;;;;;;;;;;12.76;94.35;99896.28;7316854;19;19923;-64
2023/12/10 11:00:20;;;;;;;;;;;;;;;12.73;94.65;99872.94;7310639;19;21132;-65
2023/12/10 11:02:49;;;;;;;;;;;;;;;12.77;94.93;99868.06;7325173;19;20668;-65
2023/12/10 11:05:32;;;;;;;;;;;;;;;12.80;95.83;99852.66;7314351;19;19926;-65
2023/12/10 11:07:59;;;;;;;;;;;;;;;12.76;94.81;99855.88;7305823;19;19929;-66
2023/12/10 11:10:26;;;;;;;;;;;;;;;12.74;94.14;99845.53;7296584;19;19948;-67
2023/12/10 11:12:54;;;;;;;;;;;;;;;12.74;93.83;99826.25;7307644;19;19922;-67
2023/12/10 11:15:22;;;;;;;;;;;;;;;12.74;94.08;99818.31;7320545;19;19925;-67
2023/12/10 11:17:52;;;;;;;;;;;;;;;12.75;94.33;99815.47;7315580;19;20507;-66
2023/12/10 11:20:30;;;;;;;;;;;;;;;12.72;94.21;99797.38;7309010;19;19919;-67
2023/12/10 11:22:57;;;;;;;;;;;;;;;12.70;93.98;99812.59;7318815;19;19910;-66
2023/12/10 11:25:24;;;;;;;;;;;;;;;12.66;94.83;99806.06;7300298;19;19926;-66
2023/12/10 11:27:51;;;;;;;;;;;;;;;12.66;95.04;99799.97;7312973;19;19936;-65
2023/12/10 11:30:18;;;;;;;;;;;;;;;12.66;95.25;99786.78;7320778;19;19922;-66
2023/12/10 11:32:45;;;;;;;;;;;;;;;12.63;95.43;99758.13;7329743;19;19915;-66
2023/12/10 11:35:14;;;;;;;;;;;;;;;12.54;96.20;99757.47;7327746;19;20413;-67
2023/12/10 11:37:41;;;;;;;;;;;;;;;12.54;97.23;99730.28;7315957;19;19914;-67
2023/12/10 11:40:08;;;;;;;;;;;;;;;12.58;98.29;99710.41;7308056;19;19911;-67
2023/12/10 11:42:36;;;;;;;;;;;;;;;12.57;97.93;99693.75;7321944;19;19922;-67
2023/12/10 11:45:04;;;;;;;;;;;;;;;12.56;98.20;99680.75;7319852;19;20566;-67
2023/12/10 11:47:31;;;;;;;;;;;;;;;12.55;98.20;99679.09;7332272;19;19918;-67
2023/12/10 11:49:58;;;;;;;;;;;;;;;12.58;99.14;99668.19;7324826;19;19915;-66
2023/12/10 11:52:25;;;;;;;;;;;;;;;12.59;99.28;99677.72;7306347;19;19911;-67
2023/12/10 11:54:53;;;;;;;;;;;;;;;12.57;98.91;99672.63;7305551;19;20166;-67
2023/12/10 11:57:20;;;;;;;;;;;;;;;12.56;98.92;99663.09;7319395;19;20265;-67
2023/12/10 11:59:48;;;;;;;;;;;;;;;12.55;99.01;99639.53;7316122;19;19917;-67
2023/12/10 12:02:16;;;;;;;;;;;;;;;12.59;99.41;99632.88;7324271;19;20406;-66
2023/12/10 12:04:42;;;;;;;;;;;;;;;12.62;99.68;99622.72;7309189;19;20376;-68
2023/12/10 12:07:22;;;;;;;;;;;;;;;12.60;98.82;99616.00;7298809;19;20312;-67
2023/12/10 12:09:50;;;;;;;;;;;;;;;12.58;98.69;99624.13;7321007;19;21087;-66
2023/12/10 12:12:18;;;;;;;;;;;;;;;12.59;98.78;99628.41;7313692;19;20550;-66
2023/12/10 12:14:45;;;;;;;;;;;;;;;12.65;98.78;99613.59;7317770;19;19982;-66
2023/12/10 12:17:13;;;;;;;;;;;;;;;12.69;99.63;99601.66;7318043;19;20486;-66
2023/12/10 12:19:41;;;;;;;;;;;;;;;12.67;100.00;99583.38;7312940;19;20252;-66
2023/12/10 12:22:08;;;;;;;;;;;;;;;12.70;100.00;99593.53;7316751;19;20357;-66
2023/12/10 12:24:34;;;;;;;;;;;;;;;12.67;100.00;99585.19;7314407;19;20023;-67
2023/12/10 12:27:01;;;;;;;;;;;;;;;12.58;99.98;99563.44;7305116;19;20812;-66
2023/12/10 12:29:28;;;;;;;;;;;;;;;12.57;100.00;99568.91;7301568;19;19923;-66
2023/12/10 12:31:55;;;;;;;;;;;;;;;12.55;100.00;99555.91;7320954;19;19921;-66
2023/12/10 12:34:42;;;;;;;;;;;;;;;12.55;100.00;99549.81;7311988;19;20434;-68
2023/12/10 12:37:09;;;;;;;;;;;;;;;12.51;100.00;99535.41;7310705;19;20597;-65
2023/12/10 12:39:36;;;;;;;;;;;;;;;12.43;100.00;99517.94;7315802;19;19931;-65
2023/12/10 12:42:03;;;;;;;;;;;;;;;12.38;100.00;99491.31;7308061;19;19922;-66